createdAt,value
2023-06-17T00:00:08.408Z,0.00
2023-06-17T00:00:39.217Z,0.00
2023-06-17T00:01:11.403Z,0.00
2023-06-17T00:01:43.506Z,0.00
2023-06-17T00:02:15.367Z,0.00
2023-06-17T00:02:47.197Z,0.00
2023-06-17T00:03:19.369Z,0.00
2023-06-17T00:03:51.119Z,0.00
2023-06-17T00:04:23.691Z,0.00
2023-06-17T00:04:55.076Z,0.00
2023-06-17T00:05:27.400Z,0.00
2023-06-17T00:05:43.458Z,0.00
2023-06-17T00:06:27.109Z,0.00
2023-06-17T00:06:59.312Z,0.00
2023-06-17T00:07:31.038Z,0.00
2023-06-17T00:08:04.083Z,0.00
2023-06-17T00:08:35.179Z,0.00
2023-06-17T00:09:07.031Z,0.00
2023-06-17T00:09:38.918Z,0.00
2023-06-17T00:10:11.759Z,0.00
2023-06-17T00:10:43.177Z,0.00
2023-06-17T00:11:14.908Z,0.00
2023-06-17T00:11:46.772Z,0.00
2023-06-17T00:12:18.814Z,0.00
2023-06-17T00:12:50.880Z,0.00
2023-06-17T00:13:23.158Z,0.00
2023-06-17T00:13:54.638Z,0.00
2023-06-17T00:14:26.764Z,0.00
2023-06-17T00:14:58.762Z,0.00
2023-06-17T00:15:31.166Z,0.00
2023-06-17T00:16:03.621Z,0.00
2023-06-17T00:16:34.665Z,0.00
2023-06-17T00:17:06.525Z,0.00
2023-06-17T00:17:38.756Z,0.00
2023-06-17T00:18:10.481Z,0.00
2023-06-17T00:18:26.665Z,0.00
2023-06-17T00:19:10.605Z,0.00
2023-06-17T00:19:42.695Z,0.00
2023-06-17T00:20:15.287Z,0.00
2023-06-17T00:20:46.406Z,0.00
2023-06-17T00:21:18.397Z,0.00
2023-06-17T00:21:50.595Z,0.00
2023-06-17T00:22:22.837Z,0.00
2023-06-17T00:22:54.342Z,0.00
2023-06-17T00:23:26.327Z,0.00
2023-06-17T00:23:58.518Z,0.00
2023-06-17T00:24:30.517Z,0.00
2023-06-17T00:25:03.745Z,0.00
2023-06-17T00:25:18.412Z,0.00
2023-06-17T00:25:50.420Z,0.00
2023-06-17T00:26:34.228Z,0.00
2023-06-17T00:27:06.305Z,0.00
2023-06-17T00:27:38.106Z,0.00
2023-06-17T00:28:10.181Z,0.00
2023-06-17T00:28:42.151Z,0.00
2023-06-17T00:29:14.351Z,0.00
2023-06-17T00:29:45.979Z,0.00
2023-06-17T00:30:20.521Z,0.00
2023-06-17T00:30:50.247Z,0.00
2023-06-17T00:31:21.973Z,0.00
2023-06-17T00:31:54.238Z,0.00
2023-06-17T00:32:25.974Z,0.00
2023-06-17T00:32:58.025Z,0.00
2023-06-17T00:33:29.930Z,0.00
2023-06-17T00:34:02.769Z,0.00
2023-06-17T00:34:33.949Z,0.00
2023-06-17T00:35:06.271Z,0.00
2023-06-17T00:35:37.875Z,0.00
2023-06-17T00:36:09.723Z,0.00
2023-06-17T00:36:25.973Z,0.00
2023-06-17T00:37:09.790Z,0.00
2023-06-17T00:37:41.887Z,0.00
2023-06-17T00:38:13.825Z,0.00
2023-06-17T00:38:45.483Z,0.00
2023-06-17T00:39:17.720Z,0.00
2023-06-17T00:39:49.772Z,0.00
2023-06-17T00:40:22.076Z,0.00
2023-06-17T00:40:53.713Z,0.00
2023-06-17T00:41:25.645Z,0.00
2023-06-17T00:41:57.602Z,0.00
2023-06-17T00:42:29.438Z,0.00
2023-06-17T00:43:02.062Z,0.00
2023-06-17T00:43:33.515Z,0.00
2023-06-17T00:44:05.735Z,0.00
2023-06-17T00:44:37.583Z,0.00
2023-06-17T00:45:10.820Z,0.00
2023-06-17T00:45:25.611Z,0.00
2023-06-17T00:45:57.681Z,0.00
2023-06-17T00:46:13.667Z,0.00
2023-06-17T00:46:45.287Z,0.00
2023-06-17T00:47:17.289Z,0.00
2023-06-17T00:47:49.542Z,0.00
2023-06-17T00:48:21.412Z,0.00
2023-06-17T00:48:53.476Z,0.00
2023-06-17T00:49:25.349Z,0.00
2023-06-17T00:49:41.504Z,0.00
2023-06-17T00:50:13.830Z,0.00
2023-06-17T00:50:57.227Z,0.00
2023-06-17T00:51:29.107Z,0.00
2023-06-17T00:52:20.192Z,0.00
2023-06-17T00:52:41.044Z,0.00
2023-06-17T00:53:05.448Z,0.00
2023-06-17T00:53:36.956Z,0.00
2023-06-17T00:54:09.116Z,0.00
2023-06-17T00:54:25.253Z,0.00
2023-06-17T00:55:09.316Z,0.00
2023-06-17T00:55:40.891Z,0.00
2023-06-17T00:56:13.016Z,0.00
2023-06-17T00:56:45.025Z,0.00
2023-06-17T00:57:17.141Z,0.00
2023-06-17T00:57:49.169Z,0.00
2023-06-17T00:58:20.926Z,0.00
2023-06-17T00:58:53.204Z,0.00
2023-06-17T00:59:24.840Z,0.00
2023-06-17T00:59:56.716Z,0.00
2023-06-17T01:00:15.853Z,0.00
2023-06-17T01:00:45.051Z,0.00
2023-06-17T01:01:28.844Z,0.00
2023-06-17T01:02:00.779Z,0.00
2023-06-17T01:02:32.938Z,0.00
2023-06-17T01:03:05.148Z,0.00
2023-06-17T01:03:36.777Z,0.00
2023-06-17T01:04:08.835Z,0.00
2023-06-17T01:04:40.621Z,0.00
2023-06-17T01:04:56.761Z,0.00
2023-06-17T01:05:40.790Z,0.00
2023-06-17T01:05:56.809Z,0.00
2023-06-17T01:06:40.667Z,0.00
2023-06-17T01:07:12.646Z,0.00
2023-06-17T01:07:44.630Z,0.00
2023-06-17T01:08:16.524Z,0.00
2023-06-17T01:08:48.686Z,0.00
2023-06-17T01:09:20.546Z,0.00
2023-06-17T01:09:52.464Z,0.00
2023-06-17T01:10:24.790Z,0.00
2023-06-17T01:10:58.897Z,0.00
2023-06-17T01:11:28.518Z,0.00
2023-06-17T01:12:00.261Z,0.00
2023-06-17T01:12:32.536Z,0.00
2023-06-17T01:13:05.102Z,0.00
2023-06-17T01:13:36.325Z,0.00
2023-06-17T01:14:08.205Z,0.00
2023-06-17T01:14:24.472Z,0.00
2023-06-17T01:15:09.342Z,0.00
2023-06-17T01:15:40.148Z,0.00
2023-06-17T01:16:12.515Z,0.00
2023-06-17T01:16:44.202Z,0.00
2023-06-17T01:17:16.035Z,0.00
2023-06-17T01:17:48.234Z,0.00
2023-06-17T01:18:20.190Z,0.00
2023-06-17T01:18:51.992Z,0.00
2023-06-17T01:19:24.436Z,0.00
2023-06-17T01:19:40.258Z,0.00
2023-06-17T01:20:24.778Z,0.00
2023-06-17T01:20:56.201Z,0.00
2023-06-17T01:21:27.844Z,0.00
2023-06-17T01:21:59.955Z,0.00
2023-06-17T01:22:32.078Z,0.00
2023-06-17T01:23:04.734Z,0.00
2023-06-17T01:23:35.775Z,0.00
2023-06-17T01:24:07.969Z,0.00
2023-06-17T01:24:24.477Z,0.00
2023-06-17T01:24:55.792Z,0.00
2023-06-17T01:25:12.262Z,0.00
2023-06-17T01:25:43.980Z,0.00
2023-06-17T01:26:15.664Z,0.00
2023-06-17T01:26:47.968Z,0.00
2023-06-17T01:27:21.422Z,0.00
2023-06-17T01:27:51.533Z,0.00
2023-06-17T01:28:23.885Z,0.00
2023-06-17T01:28:39.767Z,0.00
2023-06-17T01:29:11.522Z,0.00
2023-06-17T01:29:55.662Z,0.00
2023-06-17T01:30:27.899Z,0.00
2023-06-17T01:30:59.715Z,0.00
2023-06-17T01:31:31.522Z,0.00
2023-06-17T01:32:04.389Z,0.00
2023-06-17T01:32:35.398Z,0.00
2023-06-17T01:33:07.462Z,0.00
2023-06-17T01:33:39.541Z,0.00
2023-06-17T01:34:11.491Z,0.00
2023-06-17T01:34:43.377Z,0.00
2023-06-17T01:35:15.589Z,0.00
2023-06-17T01:35:47.423Z,0.00
2023-06-17T01:36:19.384Z,0.00
2023-06-17T01:36:51.289Z,0.00
2023-06-17T01:37:23.813Z,0.00
2023-06-17T01:37:55.246Z,0.00
2023-06-17T01:38:27.282Z,0.00
2023-06-17T01:38:59.250Z,0.00
2023-06-17T01:39:31.207Z,0.00
2023-06-17T01:40:04.604Z,0.00
2023-06-17T01:40:35.234Z,0.00
2023-06-17T01:41:06.972Z,0.00
2023-06-17T01:41:23.397Z,0.00
2023-06-17T01:41:55.153Z,0.00
2023-06-17T01:42:39.063Z,0.00
2023-06-17T01:43:11.118Z,0.00
2023-06-17T01:43:43.283Z,0.00
2023-06-17T01:44:15.049Z,0.00
2023-06-17T01:44:47.090Z,0.00
2023-06-17T01:45:19.376Z,0.00
2023-06-17T01:45:50.874Z,0.00
2023-06-17T01:46:23.426Z,0.00
2023-06-17T01:46:55.414Z,0.00
2023-06-17T01:47:27.994Z,0.00
2023-06-17T01:47:58.754Z,0.00
2023-06-17T01:48:30.771Z,0.00
2023-06-17T01:49:03.971Z,0.00
2023-06-17T01:49:34.736Z,0.00
2023-06-17T01:50:06.831Z,0.00
2023-06-17T01:50:38.692Z,0.00
2023-06-17T01:50:55.101Z,0.00
2023-06-17T01:51:26.730Z,0.00
2023-06-17T01:52:10.766Z,0.00
2023-06-17T01:52:43.005Z,0.00
2023-06-17T01:53:14.574Z,0.00
2023-06-17T01:53:46.523Z,0.00
2023-06-17T01:54:18.621Z,0.00
2023-06-17T01:54:50.478Z,0.00
2023-06-17T01:55:06.846Z,0.00
2023-06-17T01:55:38.424Z,0.00
2023-06-17T01:55:55.059Z,0.00
2023-06-17T01:56:26.541Z,0.00
2023-06-17T01:56:58.334Z,0.00
2023-06-17T01:57:30.386Z,0.00
2023-06-17T01:58:03.170Z,0.00
2023-06-17T01:58:34.502Z,0.00
2023-06-17T01:59:06.264Z,0.00
2023-06-17T01:59:22.410Z,0.00
2023-06-17T01:59:54.576Z,0.00
2023-06-17T02:00:12.070Z,0.00
2023-06-17T02:00:42.562Z,0.00
2023-06-17T02:01:14.264Z,0.00
2023-06-17T02:01:46.218Z,0.00
2023-06-17T02:02:18.289Z,0.00
2023-06-17T02:02:50.473Z,0.00
2023-06-17T02:03:22.200Z,0.00
2023-06-17T02:03:38.447Z,0.00
2023-06-17T02:04:10.346Z,0.00
2023-06-17T02:04:54.337Z,0.00
2023-06-17T02:05:26.490Z,0.00
2023-06-17T02:05:58.009Z,0.00
2023-06-17T02:06:30.174Z,0.00
2023-06-17T02:07:02.897Z,0.00
2023-06-17T02:07:34.219Z,0.00
2023-06-17T02:08:05.873Z,0.00
2023-06-17T02:08:21.993Z,0.00
2023-06-17T02:09:06.011Z,0.00
2023-06-17T02:09:37.918Z,0.00
2023-06-17T02:10:09.992Z,0.00
2023-06-17T02:10:41.898Z,0.00
2023-06-17T02:11:13.863Z,0.00
2023-06-17T02:11:45.785Z,0.00
2023-06-17T02:12:17.870Z,0.00
2023-06-17T02:12:49.762Z,0.00
2023-06-17T02:13:21.824Z,0.00
2023-06-17T02:13:54.163Z,0.00
2023-06-17T02:14:25.785Z,0.00
2023-06-17T02:14:57.564Z,0.00
2023-06-17T02:15:15.214Z,0.00
2023-06-17T02:15:45.651Z,0.00
2023-06-17T02:16:29.858Z,0.00
2023-06-17T02:17:01.705Z,0.00
2023-06-17T02:17:33.853Z,0.00
2023-06-17T02:18:05.737Z,0.00
2023-06-17T02:18:37.574Z,0.00
2023-06-17T02:19:09.596Z,0.00
2023-06-17T02:19:41.441Z,0.00
2023-06-17T02:20:13.914Z,0.00
2023-06-17T02:20:45.576Z,0.00
2023-06-17T02:21:17.367Z,0.00
2023-06-17T02:21:49.269Z,0.00
2023-06-17T02:22:21.500Z,0.00
2023-06-17T02:22:53.743Z,0.00
2023-06-17T02:23:25.105Z,0.00
2023-06-17T02:23:57.325Z,0.00
2023-06-17T02:24:29.377Z,0.00
2023-06-17T02:25:01.694Z,0.00
2023-06-17T02:25:33.537Z,0.00
2023-06-17T02:26:05.431Z,0.00
2023-06-17T02:26:37.190Z,0.00
2023-06-17T02:27:09.230Z,0.00
2023-06-17T02:27:41.388Z,0.00
2023-06-17T02:28:13.118Z,0.00
2023-06-17T02:28:45.402Z,0.00
2023-06-17T02:29:17.255Z,0.00
2023-06-17T02:29:49.212Z,0.00
2023-06-17T02:30:21.724Z,0.00
2023-06-17T02:30:37.222Z,0.00
2023-06-17T02:31:21.166Z,0.00
2023-06-17T02:31:53.291Z,0.00
2023-06-17T02:32:25.332Z,0.00
2023-06-17T02:32:56.985Z,0.00
2023-06-17T02:33:28.943Z,0.00
2023-06-17T02:34:01.131Z,0.00
2023-06-17T02:34:33.034Z,0.00
2023-06-17T02:35:06.364Z,0.00
2023-06-17T02:35:36.925Z,0.00
2023-06-17T02:36:08.978Z,0.00
2023-06-17T02:36:40.729Z,0.00
2023-06-17T02:37:12.994Z,0.00
2023-06-17T02:37:44.873Z,0.00
2023-06-17T02:38:16.743Z,0.00
2023-06-17T02:38:48.608Z,0.00
2023-06-17T02:39:20.735Z,0.00
2023-06-17T02:39:36.838Z,0.00
2023-06-17T02:40:09.194Z,0.00
2023-06-17T02:40:52.882Z,0.00
2023-06-17T02:41:24.749Z,0.00
2023-06-17T02:41:56.560Z,0.00
2023-06-17T02:42:28.596Z,0.00
2023-06-17T02:43:00.698Z,0.00
2023-06-17T02:43:32.674Z,0.00
2023-06-17T02:44:05.136Z,0.00
2023-06-17T02:44:36.494Z,0.00
2023-06-17T02:45:10.032Z,0.00
2023-06-17T02:45:40.424Z,0.00
2023-06-17T02:46:12.514Z,0.00
2023-06-17T02:46:44.625Z,0.00
2023-06-17T02:47:16.553Z,0.00
2023-06-17T02:47:48.353Z,0.00
2023-06-17T02:48:20.242Z,0.00
2023-06-17T02:48:36.512Z,0.00
2023-06-17T02:49:20.434Z,0.00
2023-06-17T02:49:52.311Z,0.00
2023-06-17T02:50:24.788Z,0.00
2023-06-17T02:50:56.173Z,0.00
2023-06-17T02:51:28.244Z,0.00
2023-06-17T02:52:00.173Z,0.00
2023-06-17T02:52:32.030Z,0.00
2023-06-17T02:53:05.075Z,0.00
2023-06-17T02:53:36.162Z,0.00
2023-06-17T02:54:08.238Z,0.00
2023-06-17T02:54:40.136Z,0.00
2023-06-17T02:55:12.473Z,0.00
2023-06-17T02:55:44.276Z,0.00
2023-06-17T02:56:16.033Z,0.00
2023-06-17T02:56:48.009Z,0.00
2023-06-17T02:57:20.166Z,0.00
2023-06-17T02:57:51.989Z,0.00
2023-06-17T02:58:24.242Z,0.00
2023-06-17T02:58:55.712Z,0.00
2023-06-17T02:59:27.892Z,0.00
2023-06-17T02:59:59.947Z,0.00
2023-06-17T03:00:32.088Z,0.00
2023-06-17T03:01:05.007Z,0.00
2023-06-17T03:01:19.922Z,0.00
2023-06-17T03:02:04.935Z,0.00
2023-06-17T03:02:35.909Z,0.00
2023-06-17T03:03:07.600Z,0.00
2023-06-17T03:03:39.655Z,0.00
2023-06-17T03:04:11.620Z,0.00
2023-06-17T03:04:43.831Z,0.00
2023-06-17T03:05:15.742Z,0.00
2023-06-17T03:05:47.582Z,0.00
2023-06-17T03:06:19.532Z,0.00
2023-06-17T03:06:51.641Z,0.00
2023-06-17T03:07:23.837Z,0.00
2023-06-17T03:07:55.358Z,0.00
2023-06-17T03:08:27.395Z,0.00
2023-06-17T03:08:59.520Z,0.00
2023-06-17T03:09:31.494Z,0.00
2023-06-17T03:10:04.495Z,0.00
2023-06-17T03:10:19.875Z,0.00
2023-06-17T03:10:51.666Z,0.00
2023-06-17T03:11:07.445Z,0.00
2023-06-17T03:11:39.508Z,0.00
2023-06-17T03:12:11.202Z,0.00
2023-06-17T03:12:43.581Z,0.00
2023-06-17T03:13:15.329Z,0.00
2023-06-17T03:13:47.214Z,0.00
2023-06-17T03:14:19.196Z,0.00
2023-06-17T03:14:35.193Z,0.00
2023-06-17T03:15:08.387Z,0.00
2023-06-17T03:15:51.257Z,0.00
2023-06-17T03:16:23.417Z,0.00
2023-06-17T03:16:55.305Z,0.00
2023-06-17T03:17:27.173Z,0.00
2023-06-17T03:17:58.990Z,0.00
2023-06-17T03:18:31.094Z,0.00
2023-06-17T03:19:04.125Z,0.00
2023-06-17T03:19:19.198Z,0.00
2023-06-17T03:20:04.745Z,0.00
2023-06-17T03:20:34.971Z,0.00
2023-06-17T03:21:06.964Z,0.85
2023-06-17T03:21:38.932Z,0.00
2023-06-17T03:22:10.844Z,0.00
2023-06-17T03:22:43.111Z,0.85
2023-06-17T03:23:15.012Z,0.36
2023-06-17T03:23:47.134Z,0.85
2023-06-17T03:24:18.840Z,0.00
2023-06-17T03:24:51.037Z,0.85
2023-06-17T03:25:23.186Z,1.22
2023-06-17T03:25:55.033Z,0.85
2023-06-17T03:26:26.967Z,0.85
2023-06-17T03:26:58.973Z,0.85
2023-06-17T03:27:31.019Z,1.71
2023-06-17T03:28:03.900Z,2.08
2023-06-17T03:28:19.111Z,1.71
2023-06-17T03:28:50.721Z,2.08
2023-06-17T03:29:06.898Z,1.71
2023-06-17T03:29:38.888Z,2.08
2023-06-17T03:30:12.054Z,2.08
2023-06-17T03:30:42.898Z,2.08
2023-06-17T03:31:14.861Z,1.71
2023-06-17T03:31:46.832Z,2.08
2023-06-17T03:32:18.721Z,2.94
2023-06-17T03:32:35.036Z,2.57
2023-06-17T03:33:06.546Z,2.57
2023-06-17T03:33:50.774Z,2.57
2023-06-17T03:34:22.703Z,2.57
2023-06-17T03:34:54.733Z,2.94
2023-06-17T03:35:26.831Z,3.43
2023-06-17T03:35:58.581Z,2.94
2023-06-17T03:36:30.433Z,3.43
2023-06-17T03:37:03.290Z,3.79
2023-06-17T03:37:18.598Z,3.43
2023-06-17T03:38:03.055Z,4.28
2023-06-17T03:38:34.733Z,3.79
2023-06-17T03:39:06.279Z,4.77
2023-06-17T03:39:38.320Z,4.28
2023-06-17T03:40:10.973Z,5.14
2023-06-17T03:40:42.403Z,4.77
2023-06-17T03:41:14.461Z,5.63
2023-06-17T03:41:46.270Z,4.77
2023-06-17T03:42:18.276Z,5.63
2023-06-17T03:42:50.221Z,5.14
2023-06-17T03:43:22.085Z,4.77
2023-06-17T03:43:54.358Z,5.99
2023-06-17T03:44:26.091Z,5.63
2023-06-17T03:44:58.202Z,6.48
2023-06-17T03:45:30.486Z,6.48
2023-06-17T03:46:02.403Z,6.48
2023-06-17T03:46:18.240Z,6.48
2023-06-17T03:46:50.163Z,6.85
2023-06-17T03:47:06.113Z,6.48
2023-06-17T03:47:38.081Z,6.48
2023-06-17T03:48:10.119Z,7.34
2023-06-17T03:48:42.024Z,7.34
2023-06-17T03:49:14.267Z,7.34
2023-06-17T03:49:46.039Z,7.70
2023-06-17T03:50:18.339Z,8.19
2023-06-17T03:50:34.380Z,7.70
2023-06-17T03:51:06.062Z,8.19
2023-06-17T03:51:49.964Z,8.19
2023-06-17T03:52:21.860Z,8.56
2023-06-17T03:52:54.104Z,9.05
2023-06-17T03:53:25.860Z,8.56
2023-06-17T03:53:57.920Z,9.05
2023-06-17T03:54:29.618Z,8.19
2023-06-17T03:55:02.311Z,9.05
2023-06-17T03:55:17.907Z,9.54
2023-06-17T03:56:01.921Z,9.91
2023-06-17T03:56:34.101Z,10.39
2023-06-17T03:57:05.967Z,10.39
2023-06-17T03:57:37.661Z,9.91
2023-06-17T03:58:09.668Z,10.77
2023-06-17T03:58:41.543Z,9.91
2023-06-17T03:59:13.905Z,10.77
2023-06-17T03:59:45.525Z,10.77
2023-06-17T04:00:18.800Z,11.25
2023-06-17T04:00:49.576Z,11.62
2023-06-17T04:01:05.998Z,11.25
2023-06-17T04:01:37.649Z,10.39
2023-06-17T04:02:21.564Z,12.11
2023-06-17T04:02:53.736Z,11.62
2023-06-17T04:03:25.514Z,11.62
2023-06-17T04:03:57.304Z,11.62
2023-06-17T04:04:29.354Z,12.48
2023-06-17T04:05:01.755Z,12.97
2023-06-17T04:05:33.565Z,12.11
2023-06-17T04:06:05.661Z,12.48
2023-06-17T04:06:37.223Z,12.97
2023-06-17T04:07:09.365Z,12.97
2023-06-17T04:07:41.347Z,14.31
2023-06-17T04:08:13.437Z,14.31
2023-06-17T04:08:45.217Z,13.82
2023-06-17T04:09:17.217Z,13.82
2023-06-17T04:10:05.471Z,13.82
2023-06-17T04:10:21.229Z,13.82
2023-06-17T04:10:53.371Z,14.31
2023-06-17T04:11:25.071Z,15.53
2023-06-17T04:11:57.089Z,14.68
2023-06-17T04:12:29.060Z,15.17
2023-06-17T04:13:01.001Z,14.68
2023-06-17T04:13:33.419Z,15.53
2023-06-17T04:14:05.592Z,16.02
2023-06-17T04:14:36.804Z,16.39
2023-06-17T04:15:10.269Z,16.39
2023-06-17T04:15:40.934Z,16.02
2023-06-17T04:16:12.958Z,16.02
2023-06-17T04:16:44.768Z,16.88
2023-06-17T04:17:16.789Z,16.39
2023-06-17T04:17:32.960Z,17.73
2023-06-17T04:18:16.901Z,17.25
2023-06-17T04:18:48.853Z,18.11
2023-06-17T04:19:20.567Z,17.73
2023-06-17T04:19:52.926Z,18.11
2023-06-17T04:20:25.248Z,17.73
2023-06-17T04:20:56.745Z,18.60
2023-06-17T04:21:28.647Z,19.45
2023-06-17T04:22:00.720Z,19.08
2023-06-17T04:22:32.650Z,19.08
2023-06-17T04:23:05.360Z,19.45
2023-06-17T04:23:36.633Z,19.94
2023-06-17T04:24:08.570Z,19.94
2023-06-17T04:24:40.629Z,19.94
2023-06-17T04:25:12.900Z,20.31
2023-06-17T04:25:44.753Z,19.94
2023-06-17T04:26:16.400Z,19.94
2023-06-17T04:26:48.426Z,21.16
2023-06-17T04:27:20.526Z,21.65
2023-06-17T04:27:52.327Z,20.80
2023-06-17T04:28:24.581Z,21.16
2023-06-17T04:28:56.361Z,21.16
2023-06-17T04:29:28.446Z,22.02
2023-06-17T04:30:00.185Z,22.02
2023-06-17T04:30:17.397Z,22.02
2023-06-17T04:31:00.263Z,22.51
2023-06-17T04:31:32.328Z,21.65
2023-06-17T04:32:05.183Z,22.87
2023-06-17T04:32:36.181Z,22.87
2023-06-17T04:33:08.298Z,22.87
2023-06-17T04:33:40.172Z,23.36
2023-06-17T04:34:12.074Z,23.85
2023-06-17T04:34:44.342Z,23.85
2023-06-17T04:35:17.117Z,24.22
2023-06-17T04:35:48.002Z,24.71
2023-06-17T04:36:20.174Z,25.07
2023-06-17T04:36:52.069Z,24.71
2023-06-17T04:37:23.980Z,25.07
2023-06-17T04:37:55.962Z,25.56
2023-06-17T04:38:27.903Z,25.56
2023-06-17T04:38:59.681Z,25.56
2023-06-17T04:39:31.820Z,26.42
2023-06-17T04:39:47.960Z,26.42
2023-06-17T04:40:32.148Z,27.28
2023-06-17T04:41:04.899Z,28.99
2023-06-17T04:41:35.627Z,32.42
2023-06-17T04:42:07.815Z,30.70
2023-06-17T04:42:39.831Z,28.63
2023-06-17T04:43:11.838Z,28.63
2023-06-17T04:43:43.882Z,27.65
2023-06-17T04:44:15.664Z,27.28
2023-06-17T04:44:47.690Z,28.99
2023-06-17T04:45:20.122Z,28.63
2023-06-17T04:45:51.627Z,35.11
2023-06-17T04:46:23.836Z,34.25
2023-06-17T04:46:55.572Z,32.90
2023-06-17T04:47:29.508Z,33.39
2023-06-17T04:47:59.711Z,37.68
2023-06-17T04:48:15.533Z,34.62
2023-06-17T04:48:59.429Z,32.90
2023-06-17T04:49:31.468Z,32.05
2023-06-17T04:50:04.899Z,43.31
2023-06-17T04:50:35.389Z,45.51
2023-06-17T04:51:07.432Z,41.10
2023-06-17T04:51:39.474Z,33.39
2023-06-17T04:52:11.528Z,37.68
2023-06-17T04:52:43.599Z,45.87
2023-06-17T04:53:15.339Z,41.96
2023-06-17T04:53:47.360Z,47.22
2023-06-17T04:54:19.368Z,44.16
2023-06-17T04:54:50.993Z,43.31
2023-06-17T04:55:07.695Z,47.22
2023-06-17T04:55:39.020Z,49.79
2023-06-17T04:56:23.441Z,48.07
2023-06-17T04:56:55.352Z,48.93
2023-06-17T04:57:27.080Z,51.99
2023-06-17T04:57:59.144Z,53.34
2023-06-17T04:58:31.094Z,51.99
2023-06-17T04:59:03.841Z,45.87
2023-06-17T04:59:35.100Z,41.10
2023-06-17T05:00:08.698Z,39.39
2023-06-17T05:00:39.282Z,40.24
2023-06-17T05:01:11.096Z,39.88
2023-06-17T05:01:43.125Z,49.79
2023-06-17T05:02:15.204Z,40.73
2023-06-17T05:02:47.000Z,41.10
2023-06-17T05:03:19.126Z,42.45
2023-06-17T05:03:50.800Z,42.45
2023-06-17T05:04:22.971Z,57.25
2023-06-17T05:04:55.276Z,65.45
2023-06-17T05:05:27.061Z,58.11
2023-06-17T05:05:58.774Z,44.16
2023-06-17T05:06:14.955Z,45.87
2023-06-17T05:06:58.763Z,45.02
2023-06-17T05:07:30.712Z,67.65
2023-06-17T05:08:03.207Z,71.93
2023-06-17T05:08:34.994Z,55.05
2023-06-17T05:09:06.777Z,71.07
2023-06-17T05:09:38.792Z,71.93
2023-06-17T05:10:10.894Z,73.65
2023-06-17T05:10:42.547Z,74.50
2023-06-17T05:11:15.009Z,73.65
2023-06-17T05:11:46.609Z,73.28
2023-06-17T05:12:18.409Z,73.28
2023-06-17T05:12:50.589Z,70.22
2023-06-17T05:13:22.613Z,56.27
2023-06-17T05:13:54.766Z,44.16
2023-06-17T05:14:26.439Z,53.34
2023-06-17T05:14:58.401Z,44.16
2023-06-17T05:15:30.867Z,71.07
2023-06-17T05:16:03.127Z,80.25
2023-06-17T05:16:34.719Z,81.48
2023-06-17T05:17:06.235Z,73.65
2023-06-17T05:17:38.501Z,46.73
2023-06-17T05:18:10.469Z,50.65
2023-06-17T05:18:42.095Z,79.27
2023-06-17T05:19:14.670Z,68.02
2023-06-17T05:19:46.304Z,79.76
2023-06-17T05:20:18.244Z,83.68
2023-06-17T05:20:50.254Z,84.04
2023-06-17T05:21:23.671Z,85.02
2023-06-17T05:21:54.228Z,85.88
2023-06-17T05:22:26.267Z,92.73
2023-06-17T05:22:58.171Z,87.10
2023-06-17T05:23:14.619Z,87.59
2023-06-17T05:23:58.197Z,87.59
2023-06-17T05:24:30.160Z,88.45
2023-06-17T05:25:05.710Z,88.82
2023-06-17T05:25:34.192Z,73.65
2023-06-17T05:26:06.017Z,88.45
2023-06-17T05:26:37.868Z,71.93
2023-06-17T05:27:09.909Z,93.22
2023-06-17T05:27:41.999Z,94.07
2023-06-17T05:28:14.138Z,92.36
2023-06-17T05:28:29.856Z,81.48
2023-06-17T05:29:14.139Z,88.45
2023-06-17T05:29:29.975Z,98.85
2023-06-17T05:30:15.310Z,71.07
2023-06-17T05:30:45.627Z,71.07
2023-06-17T05:31:02.133Z,55.05
2023-06-17T05:31:33.916Z,54.56
2023-06-17T05:32:17.717Z,59.82
2023-06-17T05:32:49.921Z,80.62
2023-06-17T05:33:21.522Z,103.13
2023-06-17T05:33:54.020Z,105.33
2023-06-17T05:34:25.739Z,109.73
2023-06-17T05:34:57.651Z,97.13
2023-06-17T05:35:29.800Z,96.65
2023-06-17T05:35:45.518Z,72.42
2023-06-17T05:36:29.514Z,73.65
2023-06-17T05:37:01.835Z,117.44
2023-06-17T05:37:33.634Z,119.27
2023-06-17T05:38:05.819Z,113.16
2023-06-17T05:38:37.369Z,72.79
2023-06-17T05:39:09.492Z,91.02
2023-06-17T05:39:41.365Z,99.34
2023-06-17T05:40:14.581Z,119.64
2023-06-17T05:40:45.569Z,126.12
2023-06-17T05:41:17.663Z,129.19
2023-06-17T05:41:49.488Z,128.82
2023-06-17T05:42:21.410Z,128.82
2023-06-17T05:42:53.798Z,131.88
2023-06-17T05:43:25.567Z,126.61
2023-06-17T05:43:57.398Z,126.12
2023-06-17T05:44:29.451Z,125.76
2023-06-17T05:45:03.447Z,127.96
2023-06-17T05:45:33.355Z,127.47
2023-06-17T05:46:05.866Z,128.33
2023-06-17T05:46:37.395Z,128.82
2023-06-17T05:47:09.354Z,129.19
2023-06-17T05:47:41.186Z,130.04
2023-06-17T05:48:13.697Z,129.68
2023-06-17T05:48:29.447Z,129.19
2023-06-17T05:49:13.734Z,128.82
2023-06-17T05:49:45.598Z,130.90
2023-06-17T05:50:17.355Z,131.88
2023-06-17T05:50:49.142Z,132.24
2023-06-17T05:51:21.164Z,132.24
2023-06-17T05:51:53.378Z,134.44
2023-06-17T05:52:25.358Z,132.73
2023-06-17T05:52:57.043Z,140.07
2023-06-17T05:53:29.159Z,135.67
2023-06-17T05:54:01.016Z,137.02
2023-06-17T05:54:17.206Z,138.36
2023-06-17T05:54:48.897Z,138.73
2023-06-17T05:55:33.457Z,145.21
2023-06-17T05:56:05.681Z,141.42
2023-06-17T05:56:36.842Z,143.13
2023-06-17T05:57:08.927Z,143.50
2023-06-17T05:57:40.781Z,144.85
2023-06-17T05:58:12.722Z,149.12
2023-06-17T05:58:28.939Z,150.96
2023-06-17T05:59:00.620Z,153.53
2023-06-17T05:59:45.246Z,158.67
2023-06-17T06:00:20.029Z,158.67
2023-06-17T06:00:48.700Z,160.51
2023-06-17T06:01:20.828Z,163.07
2023-06-17T06:01:53.216Z,163.07
2023-06-17T06:02:24.866Z,163.07
2023-06-17T06:02:56.650Z,163.93
2023-06-17T06:03:12.883Z,163.93
2023-06-17T06:03:56.637Z,163.93
2023-06-17T06:04:28.612Z,164.78
2023-06-17T06:05:00.742Z,166.50
2023-06-17T06:05:32.594Z,167.36
2023-06-17T06:06:05.399Z,169.56
2023-06-17T06:06:36.474Z,172.12
2023-06-17T06:07:08.520Z,172.98
2023-06-17T06:07:40.606Z,174.33
2023-06-17T06:08:12.596Z,172.98
2023-06-17T06:08:44.593Z,172.98
2023-06-17T06:09:00.583Z,172.61
2023-06-17T06:09:32.281Z,172.12
2023-06-17T06:10:17.616Z,172.12
2023-06-17T06:10:48.233Z,173.84
2023-06-17T06:11:20.410Z,174.33
2023-06-17T06:11:52.244Z,176.04
2023-06-17T06:12:24.695Z,190.36
2023-06-17T06:12:56.078Z,179.59
2023-06-17T06:13:28.000Z,182.15
2023-06-17T06:13:44.755Z,181.30
2023-06-17T06:14:28.030Z,199.53
2023-06-17T06:15:00.772Z,183.02
2023-06-17T06:15:32.194Z,181.30
2023-06-17T06:16:04.922Z,181.30
2023-06-17T06:16:36.190Z,202.59
2023-06-17T06:17:08.194Z,180.44
2023-06-17T06:17:39.949Z,181.67
2023-06-17T06:18:12.060Z,182.15
2023-06-17T06:18:44.317Z,183.50
2023-06-17T06:19:15.997Z,184.73
2023-06-17T06:19:47.832Z,185.22
2023-06-17T06:20:20.481Z,187.29
2023-06-17T06:20:51.904Z,186.93
2023-06-17T06:21:24.252Z,185.58
2023-06-17T06:21:55.842Z,202.95
2023-06-17T06:22:27.861Z,176.90
2023-06-17T06:22:59.882Z,187.29
2023-06-17T06:23:31.752Z,187.29
2023-06-17T06:24:05.000Z,188.64
2023-06-17T06:24:37.838Z,192.07
2023-06-17T06:25:07.942Z,197.81
2023-06-17T06:25:39.835Z,197.81
2023-06-17T06:26:11.748Z,220.32
2023-06-17T06:26:28.461Z,195.61
2023-06-17T06:27:11.807Z,201.24
2023-06-17T06:27:43.914Z,198.18
2023-06-17T06:28:15.733Z,202.95
2023-06-17T06:28:47.542Z,206.87
2023-06-17T06:29:04.818Z,206.01
2023-06-17T06:29:35.673Z,203.44
2023-06-17T06:30:21.084Z,203.44
2023-06-17T06:30:51.622Z,205.15
2023-06-17T06:31:23.766Z,204.66
2023-06-17T06:31:55.625Z,207.36
2023-06-17T06:32:27.424Z,208.22
2023-06-17T06:32:43.866Z,208.58
2023-06-17T06:33:27.324Z,210.29
2023-06-17T06:33:43.938Z,211.64
2023-06-17T06:34:29.458Z,216.41
2023-06-17T06:34:59.375Z,212.13
2023-06-17T06:35:31.473Z,212.13
2023-06-17T06:36:04.951Z,212.49
2023-06-17T06:36:35.311Z,230.73
2023-06-17T06:37:07.388Z,230.24
2023-06-17T06:37:39.327Z,240.27
2023-06-17T06:38:11.307Z,213.35
2023-06-17T06:38:27.315Z,218.61
2023-06-17T06:38:59.255Z,221.67
2023-06-17T06:39:43.422Z,223.75
2023-06-17T06:40:15.478Z,225.95
2023-06-17T06:40:47.097Z,229.38
2023-06-17T06:41:19.151Z,231.22
2023-06-17T06:41:50.996Z,231.22
2023-06-17T06:42:23.268Z,232.44
2023-06-17T06:42:55.140Z,231.58
2023-06-17T06:43:27.004Z,232.44
2023-06-17T06:43:59.092Z,239.41
2023-06-17T06:44:30.824Z,233.78
2023-06-17T06:45:06.910Z,234.64
2023-06-17T06:45:35.103Z,238.56
2023-06-17T06:46:06.848Z,237.21
2023-06-17T06:46:38.837Z,238.07
2023-06-17T06:47:10.929Z,238.56
2023-06-17T06:47:43.015Z,239.78
2023-06-17T06:48:15.324Z,240.27
2023-06-17T06:48:46.675Z,241.98
2023-06-17T06:49:18.866Z,244.67
2023-06-17T06:49:50.885Z,244.67